sensor_id;sensor_type;location;lat;lon;timestamp;P1;durP1;ratioP1;P2;durP2;ratioP2
77061;SDS011;65989;51.686;5.138;2024-02-14T00:02:15;10.43;;;6.23;;
77061;SDS011;65989;51.686;5.138;2024-02-14T00:04:40;10.10;;;6.10;;
77061;SDS011;65989;51.686;5.138;2024-02-14T00:07:05;10.30;;;5.77;;
77061;SDS011;65989;51.686;5.138;2024-02-14T00:09:31;10.90;;;6.50;;
77061;SDS011;65989;51.686;5.138;2024-02-14T00:11:56;8.60;;;5.70;;
77061;SDS011;65989;51.686;5.138;2024-02-14T00:14:22;10.93;;;5.80;;
77061;SDS011;65989;51.686;5.138;2024-02-14T00:16:47;16.02;;;7.05;;
77061;SDS011;65989;51.686;5.138;2024-02-14T00:19:12;10.23;;;5.67;;
77061;SDS011;65989;51.686;5.138;2024-02-14T00:21:39;10.18;;;5.55;;
77061;SDS011;65989;51.686;5.138;2024-02-14T00:24:04;11.27;;;6.13;;
77061;SDS011;65989;51.686;5.138;2024-02-14T00:26:30;10.00;;;5.45;;
77061;SDS011;65989;51.686;5.138;2024-02-14T00:28:56;11.53;;;5.40;;
77061;SDS011;65989;51.686;5.138;2024-02-14T00:31:21;11.70;;;5.50;;
77061;SDS011;65989;51.686;5.138;2024-02-14T00:33:47;8.82;;;5.30;;
77061;SDS011;65989;51.686;5.138;2024-02-14T00:36:12;9.80;;;6.00;;
77061;SDS011;65989;51.686;5.138;2024-02-14T00:38:38;10.73;;;5.40;;
77061;SDS011;65989;51.686;5.138;2024-02-14T00:41:03;10.03;;;5.17;;
77061;SDS011;65989;51.686;5.138;2024-02-14T00:43:29;10.80;;;5.13;;
77061;SDS011;65989;51.686;5.138;2024-02-14T00:45:54;8.87;;;4.97;;
77061;SDS011;65989;51.686;5.138;2024-02-14T00:48:21;9.83;;;5.17;;
77061;SDS011;65989;51.686;5.138;2024-02-14T00:50:49;9.52;;;5.60;;
77061;SDS011;65989;51.686;5.138;2024-02-14T00:53:14;10.13;;;5.70;;
77061;SDS011;65989;51.686;5.138;2024-02-14T00:55:40;8.98;;;5.05;;
77061;SDS011;65989;51.686;5.138;2024-02-14T00:58:06;8.60;;;5.10;;
77061;SDS011;65989;51.686;5.138;2024-02-14T01:00:31;9.35;;;5.07;;
77061;SDS011;65989;51.686;5.138;2024-02-14T01:02:57;11.83;;;5.10;;
77061;SDS011;65989;51.686;5.138;2024-02-14T01:05:23;8.70;;;5.50;;
77061;SDS011;65989;51.686;5.138;2024-02-14T01:07:49;10.13;;;5.40;;
77061;SDS011;65989;51.686;5.138;2024-02-14T01:10:15;9.43;;;5.53;;
77061;SDS011;65989;51.686;5.138;2024-02-14T01:12:40;9.20;;;4.67;;
77061;SDS011;65989;51.686;5.138;2024-02-14T01:15:06;13.10;;;5.50;;
77061;SDS011;65989;51.686;5.138;2024-02-14T01:17:31;11.57;;;5.63;;
77061;SDS011;65989;51.686;5.138;2024-02-14T01:19:58;10.10;;;5.22;;
77061;SDS011;65989;51.686;5.138;2024-02-14T01:22:24;10.77;;;5.73;;
77061;SDS011;65989;51.686;5.138;2024-02-14T01:24:49;15.38;;;6.28;;
77061;SDS011;65989;51.686;5.138;2024-02-14T01:27:15;15.23;;;6.97;;
77061;SDS011;65989;51.686;5.138;2024-02-14T01:29:41;11.40;;;6.13;;
77061;SDS011;65989;51.686;5.138;2024-02-14T01:32:07;12.77;;;5.57;;
77061;SDS011;65989;51.686;5.138;2024-02-14T01:34:34;12.20;;;5.85;;
77061;SDS011;65989;51.686;5.138;2024-02-14T01:37:00;11.53;;;5.87;;
77061;SDS011;65989;51.686;5.138;2024-02-14T01:39:25;14.25;;;5.32;;
77061;SDS011;65989;51.686;5.138;2024-02-14T01:41:50;10.83;;;5.60;;
77061;SDS011;65989;51.686;5.138;2024-02-14T01:44:16;11.40;;;5.57;;
77061;SDS011;65989;51.686;5.138;2024-02-14T01:46:42;10.30;;;5.57;;
77061;SDS011;65989;51.686;5.138;2024-02-14T01:49:08;11.07;;;5.57;;
77061;SDS011;65989;51.686;5.138;2024-02-14T01:51:36;11.35;;;5.20;;
77061;SDS011;65989;51.686;5.138;2024-02-14T01:54:03;10.30;;;5.13;;
77061;SDS011;65989;51.686;5.138;2024-02-14T01:56:29;9.93;;;5.40;;
77061;SDS011;65989;51.686;5.138;2024-02-14T01:58:56;10.52;;;5.38;;
77061;SDS011;65989;51.686;5.138;2024-02-14T02:01:22;10.55;;;5.70;;
77061;SDS011;65989;51.686;5.138;2024-02-14T02:03:49;9.93;;;5.07;;
77061;SDS011;65989;51.686;5.138;2024-02-14T02:06:14;11.27;;;6.13;;
77061;SDS011;65989;51.686;5.138;2024-02-14T02:08:42;13.10;;;5.80;;
77061;SDS011;65989;51.686;5.138;2024-02-14T02:11:08;10.83;;;5.80;;
77061;SDS011;65989;51.686;5.138;2024-02-14T02:13:34;14.23;;;5.60;;
77061;SDS011;65989;51.686;5.138;2024-02-14T02:15:59;9.83;;;5.20;;
77061;SDS011;65989;51.686;5.138;2024-02-14T02:18:30;9.18;;;5.53;;
77061;SDS011;65989;51.686;5.138;2024-02-14T02:20:58;9.43;;;6.10;;
77061;SDS011;65989;51.686;5.138;2024-02-14T02:23:23;11.63;;;5.87;;
77061;SDS011;65989;51.686;5.138;2024-02-14T02:25:49;12.33;;;6.10;;
77061;SDS011;65989;51.686;5.138;2024-02-14T02:28:15;10.88;;;5.93;;
77061;SDS011;65989;51.686;5.138;2024-02-14T02:30:41;11.73;;;7.13;;
77061;SDS011;65989;51.686;5.138;2024-02-14T02:33:07;9.63;;;5.87;;
77061;SDS011;65989;51.686;5.138;2024-02-14T02:35:32;10.97;;;6.43;;
77061;SDS011;65989;51.686;5.138;2024-02-14T02:37:58;12.65;;;6.88;;
77061;SDS011;65989;51.686;5.138;2024-02-14T02:40:24;12.20;;;6.43;;
77061;SDS011;65989;51.686;5.138;2024-02-14T02:42:50;11.07;;;6.63;;
77061;SDS011;65989;51.686;5.138;2024-02-14T02:45:16;10.65;;;6.32;;
77061;SDS011;65989;51.686;5.138;2024-02-14T02:47:42;13.60;;;6.93;;
77061;SDS011;65989;51.686;5.138;2024-02-14T02:50:08;11.17;;;6.60;;
77061;SDS011;65989;51.686;5.138;2024-02-14T02:52:34;15.90;;;7.10;;
77061;SDS011;65989;51.686;5.138;2024-02-14T02:54:59;12.23;;;7.20;;
77061;SDS011;65989;51.686;5.138;2024-02-14T02:57:30;10.10;;;6.55;;
77061;SDS011;65989;51.686;5.138;2024-02-14T02:59:57;11.70;;;7.07;;
77061;SDS011;65989;51.686;5.138;2024-02-14T03:02:23;11.90;;;7.33;;
77061;SDS011;65989;51.686;5.138;2024-02-14T03:04:48;10.88;;;6.90;;
77061;SDS011;65989;51.686;5.138;2024-02-14T03:07:15;11.20;;;6.88;;
77061;SDS011;65989;51.686;5.138;2024-02-14T03:09:41;11.67;;;7.03;;
77061;SDS011;65989;51.686;5.138;2024-02-14T03:12:06;13.70;;;7.23;;
77061;SDS011;65989;51.686;5.138;2024-02-14T03:14:33;11.57;;;7.05;;
77061;SDS011;65989;51.686;5.138;2024-02-14T03:17:04;13.07;;;7.30;;
77061;SDS011;65989;51.686;5.138;2024-02-14T03:19:30;11.80;;;6.30;;
77061;SDS011;65989;51.686;5.138;2024-02-14T03:21:56;13.10;;;7.32;;
77061;SDS011;65989;51.686;5.138;2024-02-14T03:24:22;14.82;;;8.00;;
77061;SDS011;65989;51.686;5.138;2024-02-14T03:26:50;14.32;;;7.53;;
77061;SDS011;65989;51.686;5.138;2024-02-14T03:29:18;14.30;;;7.13;;
77061;SDS011;65989;51.686;5.138;2024-02-14T03:31:45;14.60;;;7.70;;
77061;SDS011;65989;51.686;5.138;2024-02-14T03:34:11;14.65;;;8.50;;
77061;SDS011;65989;51.686;5.138;2024-02-14T03:36:37;11.00;;;7.20;;
77061;SDS011;65989;51.686;5.138;2024-02-14T03:39:03;12.52;;;7.75;;
77061;SDS011;65989;51.686;5.138;2024-02-14T03:41:30;14.05;;;7.93;;
77061;SDS011;65989;51.686;5.138;2024-02-14T03:43:55;13.63;;;8.03;;
77061;SDS011;65989;51.686;5.138;2024-02-14T03:46:23;13.82;;;7.80;;
77061;SDS011;65989;51.686;5.138;2024-02-14T03:48:49;12.55;;;8.02;;
77061;SDS011;65989;51.686;5.138;2024-02-14T03:51:15;13.73;;;7.97;;
77061;SDS011;65989;51.686;5.138;2024-02-14T03:53:41;13.73;;;8.23;;
77061;SDS011;65989;51.686;5.138;2024-02-14T03:56:06;14.50;;;8.13;;
77061;SDS011;65989;51.686;5.138;2024-02-14T03:58:35;16.17;;;8.27;;
77061;SDS011;65989;51.686;5.138;2024-02-14T04:01:05;15.57;;;8.00;;
77061;SDS011;65989;51.686;5.138;2024-02-14T04:03:30;14.52;;;8.95;;
77061;SDS011;65989;51.686;5.138;2024-02-14T04:05:56;16.37;;;9.20;;
77061;SDS011;65989;51.686;5.138;2024-02-14T04:08:22;17.90;;;8.30;;
77061;SDS011;65989;51.686;5.138;2024-02-14T04:10:47;16.15;;;8.68;;
77061;SDS011;65989;51.686;5.138;2024-02-14T04:13:15;14.57;;;8.32;;
77061;SDS011;65989;51.686;5.138;2024-02-14T04:15:41;11.83;;;7.50;;
77061;SDS011;65989;51.686;5.138;2024-02-14T04:18:10;15.55;;;8.55;;
77061;SDS011;65989;51.686;5.138;2024-02-14T04:20:36;14.13;;;8.10;;
77061;SDS011;65989;51.686;5.138;2024-02-14T04:23:01;13.00;;;8.07;;
77061;SDS011;65989;51.686;5.138;2024-02-14T04:25:26;13.43;;;7.83;;
77061;SDS011;65989;51.686;5.138;2024-02-14T04:27:52;14.53;;;8.00;;
77061;SDS011;65989;51.686;5.138;2024-02-14T04:30:17;12.77;;;8.07;;
77061;SDS011;65989;51.686;5.138;2024-02-14T04:32:42;14.23;;;8.10;;
77061;SDS011;65989;51.686;5.138;2024-02-14T04:35:08;22.08;;;8.40;;
77061;SDS011;65989;51.686;5.138;2024-02-14T04:37:34;12.48;;;8.05;;
77061;SDS011;65989;51.686;5.138;2024-02-14T04:39:59;11.73;;;7.40;;
77061;SDS011;65989;51.686;5.138;2024-02-14T04:42:25;15.00;;;8.07;;
77061;SDS011;65989;51.686;5.138;2024-02-14T04:44:50;14.03;;;8.47;;
77061;SDS011;65989;51.686;5.138;2024-02-14T04:47:16;16.47;;;8.57;;
77061;SDS011;65989;51.686;5.138;2024-02-14T04:49:41;14.87;;;8.53;;
77061;SDS011;65989;51.686;5.138;2024-02-14T04:52:07;13.43;;;9.00;;
77061;SDS011;65989;51.686;5.138;2024-02-14T04:54:33;17.08;;;8.02;;
77061;SDS011;65989;51.686;5.138;2024-02-14T04:56:58;13.47;;;8.23;;
77061;SDS011;65989;51.686;5.138;2024-02-14T04:59:24;12.60;;;8.33;;
77061;SDS011;65989;51.686;5.138;2024-02-14T05:01:49;14.83;;;8.47;;
77061;SDS011;65989;51.686;5.138;2024-02-14T05:04:16;14.80;;;8.95;;
77061;SDS011;65989;51.686;5.138;2024-02-14T05:06:42;14.17;;;9.07;;
77061;SDS011;65989;51.686;5.138;2024-02-14T05:09:07;16.95;;;10.40;;
77061;SDS011;65989;51.686;5.138;2024-02-14T05:11:35;18.23;;;10.07;;
77061;SDS011;65989;51.686;5.138;2024-02-14T05:14:01;15.77;;;9.63;;
77061;SDS011;65989;51.686;5.138;2024-02-14T05:16:27;17.85;;;9.73;;
77061;SDS011;65989;51.686;5.138;2024-02-14T05:18:52;14.70;;;9.90;;
77061;SDS011;65989;51.686;5.138;2024-02-14T05:21:20;18.50;;;9.73;;
77061;SDS011;65989;51.686;5.138;2024-02-14T05:23:46;13.80;;;9.55;;
77061;SDS011;65989;51.686;5.138;2024-02-14T05:26:11;16.07;;;9.53;;
77061;SDS011;65989;51.686;5.138;2024-02-14T05:28:37;15.97;;;9.10;;
77061;SDS011;65989;51.686;5.138;2024-02-14T05:31:02;15.70;;;9.43;;
77061;SDS011;65989;51.686;5.138;2024-02-14T05:33:28;14.77;;;8.67;;
77061;SDS011;65989;51.686;5.138;2024-02-14T05:35:53;18.50;;;9.70;;
77061;SDS011;65989;51.686;5.138;2024-02-14T05:38:19;12.90;;;8.67;;
77061;SDS011;65989;51.686;5.138;2024-02-14T05:40:48;16.20;;;8.73;;
77061;SDS011;65989;51.686;5.138;2024-02-14T05:43:14;14.97;;;8.83;;
77061;SDS011;65989;51.686;5.138;2024-02-14T05:45:40;12.68;;;8.30;;
77061;SDS011;65989;51.686;5.138;2024-02-14T05:48:06;14.40;;;8.95;;
77061;SDS011;65989;51.686;5.138;2024-02-14T05:50:32;12.88;;;7.93;;
77061;SDS011;65989;51.686;5.138;2024-02-14T05:52:58;12.87;;;8.27;;
77061;SDS011;65989;51.686;5.138;2024-02-14T05:55:23;12.67;;;7.10;;
77061;SDS011;65989;51.686;5.138;2024-02-14T05:57:52;10.80;;;7.10;;
77061;SDS011;65989;51.686;5.138;2024-02-14T06:00:21;11.38;;;7.90;;
77061;SDS011;65989;51.686;5.138;2024-02-14T06:02:47;11.70;;;7.70;;
77061;SDS011;65989;51.686;5.138;2024-02-14T06:05:13;13.50;;;7.70;;
77061;SDS011;65989;51.686;5.138;2024-02-14T06:07:39;10.93;;;7.75;;
77061;SDS011;65989;51.686;5.138;2024-02-14T06:10:06;13.50;;;8.10;;
77061;SDS011;65989;51.686;5.138;2024-02-14T06:12:32;11.13;;;8.07;;
77061;SDS011;65989;51.686;5.138;2024-02-14T06:14:58;10.75;;;7.90;;
77061;SDS011;65989;51.686;5.138;2024-02-14T06:17:23;13.97;;;8.80;;
77061;SDS011;65989;51.686;5.138;2024-02-14T06:19:48;13.50;;;9.10;;
77061;SDS011;65989;51.686;5.138;2024-02-14T06:22:14;16.07;;;9.50;;
77061;SDS011;65989;51.686;5.138;2024-02-14T06:24:39;14.90;;;9.30;;
77061;SDS011;65989;51.686;5.138;2024-02-14T06:27:06;21.30;;;9.67;;
77061;SDS011;65989;51.686;5.138;2024-02-14T06:29:32;14.80;;;10.05;;
77061;SDS011;65989;51.686;5.138;2024-02-14T06:31:57;18.30;;;10.53;;
77061;SDS011;65989;51.686;5.138;2024-02-14T06:34:22;16.17;;;10.37;;
77061;SDS011;65989;51.686;5.138;2024-02-14T06:36:48;15.70;;;10.13;;
77061;SDS011;65989;51.686;5.138;2024-02-14T06:39:13;20.07;;;10.70;;
77061;SDS011;65989;51.686;5.138;2024-02-14T06:41:39;19.87;;;10.97;;
77061;SDS011;65989;51.686;5.138;2024-02-14T06:44:05;18.23;;;11.70;;
77061;SDS011;65989;51.686;5.138;2024-02-14T06:46:30;18.40;;;11.00;;
77061;SDS011;65989;51.686;5.138;2024-02-14T06:48:56;20.37;;;11.87;;
77061;SDS011;65989;51.686;5.138;2024-02-14T06:51:22;21.42;;;12.48;;
77061;SDS011;65989;51.686;5.138;2024-02-14T06:53:49;18.45;;;12.20;;
77061;SDS011;65989;51.686;5.138;2024-02-14T06:56:14;20.00;;;12.17;;
77061;SDS011;65989;51.686;5.138;2024-02-14T06:58:40;19.75;;;12.55;;
77061;SDS011;65989;51.686;5.138;2024-02-14T07:01:05;19.77;;;12.40;;
77061;SDS011;65989;51.686;5.138;2024-02-14T07:03:31;19.43;;;11.70;;
77061;SDS011;65989;51.686;5.138;2024-02-14T07:05:56;18.77;;;12.57;;
77061;SDS011;65989;51.686;5.138;2024-02-14T07:08:22;20.60;;;12.50;;
77061;SDS011;65989;51.686;5.138;2024-02-14T07:10:48;17.85;;;11.95;;
77061;SDS011;65989;51.686;5.138;2024-02-14T07:13:13;21.67;;;11.77;;
77061;SDS011;65989;51.686;5.138;2024-02-14T07:15:39;19.53;;;11.77;;
77061;SDS011;65989;51.686;5.138;2024-02-14T07:18:04;19.10;;;11.43;;
77061;SDS011;65989;51.686;5.138;2024-02-14T07:20:30;17.10;;;11.70;;
77061;SDS011;65989;51.686;5.138;2024-02-14T07:22:56;19.15;;;11.80;;
77061;SDS011;65989;51.686;5.138;2024-02-14T07:25:21;20.73;;;11.73;;
77061;SDS011;65989;51.686;5.138;2024-02-14T07:27:48;16.85;;;11.70;;
77061;SDS011;65989;51.686;5.138;2024-02-14T07:30:15;19.17;;;11.30;;
77061;SDS011;65989;51.686;5.138;2024-02-14T07:32:41;18.53;;;11.73;;
77061;SDS011;65989;51.686;5.138;2024-02-14T07:35:07;19.13;;;11.70;;
77061;SDS011;65989;51.686;5.138;2024-02-14T07:37:32;20.20;;;12.17;;
77061;SDS011;65989;51.686;5.138;2024-02-14T07:39:58;24.23;;;12.20;;
77061;SDS011;65989;51.686;5.138;2024-02-14T07:42:23;21.35;;;12.40;;
77061;SDS011;65989;51.686;5.138;2024-02-14T07:44:49;23.13;;;12.50;;
77061;SDS011;65989;51.686;5.138;2024-02-14T07:47:14;20.60;;;11.90;;
77061;SDS011;65989;51.686;5.138;2024-02-14T07:49:39;24.57;;;12.03;;
77061;SDS011;65989;51.686;5.138;2024-02-14T07:52:06;26.70;;;12.07;;
77061;SDS011;65989;51.686;5.138;2024-02-14T07:54:31;19.77;;;11.27;;
77061;SDS011;65989;51.686;5.138;2024-02-14T07:56:57;25.85;;;12.10;;
77061;SDS011;65989;51.686;5.138;2024-02-14T07:59:22;23.93;;;12.40;;
77061;SDS011;65989;51.686;5.138;2024-02-14T08:01:48;19.83;;;11.53;;
77061;SDS011;65989;51.686;5.138;2024-02-14T08:04:13;25.27;;;12.60;;
77061;SDS011;65989;51.686;5.138;2024-02-14T08:06:39;22.37;;;11.93;;
77061;SDS011;65989;51.686;5.138;2024-02-14T08:09:04;23.17;;;12.20;;
77061;SDS011;65989;51.686;5.138;2024-02-14T08:11:34;23.48;;;11.80;;
77061;SDS011;65989;51.686;5.138;2024-02-14T08:14:00;24.75;;;11.32;;
77061;SDS011;65989;51.686;5.138;2024-02-14T08:16:26;18.47;;;10.37;;
77061;SDS011;65989;51.686;5.138;2024-02-14T08:18:51;21.13;;;10.17;;
77061;SDS011;65989;51.686;5.138;2024-02-14T08:21:23;19.38;;;10.68;;
77061;SDS011;65989;51.686;5.138;2024-02-14T08:23:49;17.47;;;10.80;;
77061;SDS011;65989;51.686;5.138;2024-02-14T08:26:15;19.48;;;10.13;;
77061;SDS011;65989;51.686;5.138;2024-02-14T08:28:41;18.00;;;10.60;;
77061;SDS011;65989;51.686;5.138;2024-02-14T08:31:13;25.33;;;10.83;;
77061;SDS011;65989;51.686;5.138;2024-02-14T08:33:38;21.55;;;10.55;;
77061;SDS011;65989;51.686;5.138;2024-02-14T08:36:04;21.80;;;10.20;;
77061;SDS011;65989;51.686;5.138;2024-02-14T08:38:30;15.13;;;10.20;;
77061;SDS011;65989;51.686;5.138;2024-02-14T08:40:57;18.42;;;10.45;;
77061;SDS011;65989;51.686;5.138;2024-02-14T08:43:22;17.67;;;10.60;;
77061;SDS011;65989;51.686;5.138;2024-02-14T08:45:51;19.00;;;10.48;;
77061;SDS011;65989;51.686;5.138;2024-02-14T08:48:17;20.23;;;11.17;;
77061;SDS011;65989;51.686;5.138;2024-02-14T08:50:42;21.10;;;10.68;;
77061;SDS011;65989;51.686;5.138;2024-02-14T08:53:08;17.98;;;10.30;;
77061;SDS011;65989;51.686;5.138;2024-02-14T08:55:34;20.20;;;9.87;;
77061;SDS011;65989;51.686;5.138;2024-02-14T08:58:00;18.20;;;10.57;;
77061;SDS011;65989;51.686;5.138;2024-02-14T09:00:25;18.97;;;10.07;;
77061;SDS011;65989;51.686;5.138;2024-02-14T09:02:51;17.05;;;9.80;;
77061;SDS011;65989;51.686;5.138;2024-02-14T09:05:17;15.63;;;9.07;;
77061;SDS011;65989;51.686;5.138;2024-02-14T09:07:43;16.77;;;9.37;;
77061;SDS011;65989;51.686;5.138;2024-02-14T09:10:09;16.33;;;8.82;;
77061;SDS011;65989;51.686;5.138;2024-02-14T09:12:38;19.23;;;8.82;;
77061;SDS011;65989;51.686;5.138;2024-02-14T09:15:04;16.50;;;8.43;;
77061;SDS011;65989;51.686;5.138;2024-02-14T09:17:30;18.52;;;9.18;;
77061;SDS011;65989;51.686;5.138;2024-02-14T09:19:55;16.80;;;8.70;;
77061;SDS011;65989;51.686;5.138;2024-02-14T09:22:21;15.13;;;8.10;;
77061;SDS011;65989;51.686;5.138;2024-02-14T09:24:50;18.30;;;8.87;;
77061;SDS011;65989;51.686;5.138;2024-02-14T09:27:15;16.67;;;8.40;;
77061;SDS011;65989;51.686;5.138;2024-02-14T09:29:41;14.47;;;8.30;;
77061;SDS011;65989;51.686;5.138;2024-02-14T09:32:07;17.17;;;8.73;;
77061;SDS011;65989;51.686;5.138;2024-02-14T09:34:33;18.17;;;8.70;;
77061;SDS011;65989;51.686;5.138;2024-02-14T09:36:59;15.13;;;8.23;;
77061;SDS011;65989;51.686;5.138;2024-02-14T09:39:25;18.60;;;8.73;;
77061;SDS011;65989;51.686;5.138;2024-02-14T09:41:58;17.93;;;8.53;;
77061;SDS011;65989;51.686;5.138;2024-02-14T09:44:30;20.50;;;8.82;;
77061;SDS011;65989;51.686;5.138;2024-02-14T09:46:56;14.05;;;8.18;;
77061;SDS011;65989;51.686;5.138;2024-02-14T09:49:23;15.05;;;7.93;;
77061;SDS011;65989;51.686;5.138;2024-02-14T09:51:50;11.70;;;8.07;;
77061;SDS011;65989;51.686;5.138;2024-02-14T09:54:17;15.90;;;8.60;;
77061;SDS011;65989;51.686;5.138;2024-02-14T09:56:47;13.25;;;8.13;;
77061;SDS011;65989;51.686;5.138;2024-02-14T09:59:15;15.52;;;8.48;;
77061;SDS011;65989;51.686;5.138;2024-02-14T10:01:42;14.45;;;7.38;;
77061;SDS011;65989;51.686;5.138;2024-02-14T10:04:08;16.17;;;8.50;;
77061;SDS011;65989;51.686;5.138;2024-02-14T10:06:35;13.02;;;8.10;;
77061;SDS011;65989;51.686;5.138;2024-02-14T10:09:00;15.15;;;7.85;;
77061;SDS011;65989;51.686;5.138;2024-02-14T10:11:26;19.87;;;8.43;;
77061;SDS011;65989;51.686;5.138;2024-02-14T10:13:52;13.43;;;7.45;;
77061;SDS011;65989;51.686;5.138;2024-02-14T10:16:19;12.60;;;7.70;;
77061;SDS011;65989;51.686;5.138;2024-02-14T10:18:45;15.02;;;7.55;;
77061;SDS011;65989;51.686;5.138;2024-02-14T10:21:14;13.77;;;7.63;;
77061;SDS011;65989;51.686;5.138;2024-02-14T10:23:42;13.88;;;6.93;;
77061;SDS011;65989;51.686;5.138;2024-02-14T10:26:08;15.40;;;6.77;;
77061;SDS011;65989;51.686;5.138;2024-02-14T10:28:34;12.00;;;6.88;;
77061;SDS011;65989;51.686;5.138;2024-02-14T10:30:59;11.10;;;6.80;;
77061;SDS011;65989;51.686;5.138;2024-02-14T10:33:27;12.43;;;6.37;;
77061;SDS011;65989;51.686;5.138;2024-02-14T10:35:54;17.02;;;7.50;;
77061;SDS011;65989;51.686;5.138;2024-02-14T10:38:22;11.55;;;6.38;;
77061;SDS011;65989;51.686;5.138;2024-02-14T10:40:48;14.02;;;7.28;;
77061;SDS011;65989;51.686;5.138;2024-02-14T10:43:14;14.95;;;6.75;;
77061;SDS011;65989;51.686;5.138;2024-02-14T10:45:40;13.87;;;7.00;;
77061;SDS011;65989;51.686;5.138;2024-02-14T10:48:06;15.25;;;6.65;;
77061;SDS011;65989;51.686;5.138;2024-02-14T10:50:36;13.70;;;6.53;;
77061;SDS011;65989;51.686;5.138;2024-02-14T10:53:06;11.98;;;6.70;;
77061;SDS011;65989;51.686;5.138;2024-02-14T10:55:36;15.35;;;6.70;;
77061;SDS011;65989;51.686;5.138;2024-02-14T10:58:05;12.52;;;6.88;;
77061;SDS011;65989;51.686;5.138;2024-02-14T11:00:32;10.95;;;6.53;;
77061;SDS011;65989;51.686;5.138;2024-02-14T11:02:57;11.10;;;6.40;;
77061;SDS011;65989;51.686;5.138;2024-02-14T11:05:24;12.55;;;6.90;;
77061;SDS011;65989;51.686;5.138;2024-02-14T11:07:50;9.85;;;5.90;;
77061;SDS011;65989;51.686;5.138;2024-02-14T11:10:18;9.60;;;6.03;;
77061;SDS011;65989;51.686;5.138;2024-02-14T11:12:46;13.90;;;6.85;;
77061;SDS011;65989;51.686;5.138;2024-02-14T11:15:16;10.23;;;6.32;;
77061;SDS011;65989;51.686;5.138;2024-02-14T11:17:48;10.25;;;6.22;;
77061;SDS011;65989;51.686;5.138;2024-02-14T11:20:15;9.95;;;5.80;;
77061;SDS011;65989;51.686;5.138;2024-02-14T11:22:49;8.77;;;5.57;;
77061;SDS011;65989;51.686;5.138;2024-02-14T11:25:17;8.02;;;5.20;;
77061;SDS011;65989;51.686;5.138;2024-02-14T11:27:46;9.90;;;5.70;;
77061;SDS011;65989;51.686;5.138;2024-02-14T11:30:12;10.15;;;5.47;;
77061;SDS011;65989;51.686;5.138;2024-02-14T11:32:40;10.68;;;5.88;;
77061;SDS011;65989;51.686;5.138;2024-02-14T11:35:10;9.20;;;5.63;;
77061;SDS011;65989;51.686;5.138;2024-02-14T11:37:37;8.60;;;5.97;;
77061;SDS011;65989;51.686;5.138;2024-02-14T11:40:03;12.33;;;5.70;;
77061;SDS011;65989;51.686;5.138;2024-02-14T11:42:28;9.30;;;5.25;;
77061;SDS011;65989;51.686;5.138;2024-02-14T11:44:54;10.00;;;5.90;;
77061;SDS011;65989;51.686;5.138;2024-02-14T11:47:22;8.65;;;5.63;;
77061;SDS011;65989;51.686;5.138;2024-02-14T11:49:48;8.50;;;5.10;;
77061;SDS011;65989;51.686;5.138;2024-02-14T11:52:13;8.65;;;5.32;;
77061;SDS011;65989;51.686;5.138;2024-02-14T11:54:39;9.97;;;5.73;;
77061;SDS011;65989;51.686;5.138;2024-02-14T11:57:05;8.63;;;4.78;;
77061;SDS011;65989;51.686;5.138;2024-02-14T11:59:33;8.82;;;5.03;;
77061;SDS011;65989;51.686;5.138;2024-02-14T12:01:59;11.40;;;5.47;;
77061;SDS011;65989;51.686;5.138;2024-02-14T12:04:24;7.82;;;4.70;;
77061;SDS011;65989;51.686;5.138;2024-02-14T12:06:50;10.63;;;5.03;;
77061;SDS011;65989;51.686;5.138;2024-02-14T12:09:16;11.53;;;5.13;;
77061;SDS011;65989;51.686;5.138;2024-02-14T12:11:41;7.97;;;5.00;;
77061;SDS011;65989;51.686;5.138;2024-02-14T12:14:18;8.17;;;5.17;;
77061;SDS011;65989;51.686;5.138;2024-02-14T12:16:49;8.80;;;5.28;;
77061;SDS011;65989;51.686;5.138;2024-02-14T12:19:15;10.37;;;5.13;;
77061;SDS011;65989;51.686;5.138;2024-02-14T12:21:41;10.10;;;5.20;;
77061;SDS011;65989;51.686;5.138;2024-02-14T12:24:10;9.38;;;4.75;;
77061;SDS011;65989;51.686;5.138;2024-02-14T12:26:37;7.85;;;4.72;;
77061;SDS011;65989;51.686;5.138;2024-02-14T12:29:04;10.18;;;5.32;;
77061;SDS011;65989;51.686;5.138;2024-02-14T12:31:30;12.93;;;5.27;;
77061;SDS011;65989;51.686;5.138;2024-02-14T12:33:56;8.00;;;4.97;;
77061;SDS011;65989;51.686;5.138;2024-02-14T12:36:24;8.52;;;4.95;;
77061;SDS011;65989;51.686;5.138;2024-02-14T12:38:50;10.65;;;5.50;;
77061;SDS011;65989;51.686;5.138;2024-02-14T12:41:18;8.82;;;4.50;;
77061;SDS011;65989;51.686;5.138;2024-02-14T12:43:43;8.27;;;4.60;;
77061;SDS011;65989;51.686;5.138;2024-02-14T12:46:09;9.13;;;4.20;;
77061;SDS011;65989;51.686;5.138;2024-02-14T12:48:35;7.55;;;4.72;;
77061;SDS011;65989;51.686;5.138;2024-02-14T12:51:00;8.37;;;5.10;;
77061;SDS011;65989;51.686;5.138;2024-02-14T12:53:26;8.00;;;4.82;;
77061;SDS011;65989;51.686;5.138;2024-02-14T12:55:51;7.87;;;4.97;;
77061;SDS011;65989;51.686;5.138;2024-02-14T12:58:17;8.45;;;4.60;;
77061;SDS011;65989;51.686;5.138;2024-02-14T13:00:43;7.80;;;4.83;;
77061;SDS011;65989;51.686;5.138;2024-02-14T13:03:09;8.27;;;4.72;;
77061;SDS011;65989;51.686;5.138;2024-02-14T13:05:36;8.52;;;5.07;;
77061;SDS011;65989;51.686;5.138;2024-02-14T13:08:01;8.17;;;4.90;;
77061;SDS011;65989;51.686;5.138;2024-02-14T13:10:27;7.65;;;5.32;;
77061;SDS011;65989;51.686;5.138;2024-02-14T13:12:54;8.90;;;5.32;;
77061;SDS011;65989;51.686;5.138;2024-02-14T13:15:19;8.67;;;5.37;;
77061;SDS011;65989;51.686;5.138;2024-02-14T13:17:45;8.57;;;5.43;;
77061;SDS011;65989;51.686;5.138;2024-02-14T13:20:11;9.07;;;5.68;;
77061;SDS011;65989;51.686;5.138;2024-02-14T13:22:37;9.10;;;6.10;;
77061;SDS011;65989;51.686;5.138;2024-02-14T13:25:02;8.53;;;5.73;;
77061;SDS011;65989;51.686;5.138;2024-02-14T13:27:29;9.97;;;6.13;;
77061;SDS011;65989;51.686;5.138;2024-02-14T13:29:55;10.68;;;6.55;;
77061;SDS011;65989;51.686;5.138;2024-02-14T13:32:20;9.50;;;6.50;;
77061;SDS011;65989;51.686;5.138;2024-02-14T13:34:46;12.67;;;6.77;;
77061;SDS011;65989;51.686;5.138;2024-02-14T13:37:13;11.10;;;6.95;;
77061;SDS011;65989;51.686;5.138;2024-02-14T13:39:40;10.57;;;6.28;;
77061;SDS011;65989;51.686;5.138;2024-02-14T13:42:06;10.50;;;6.80;;
77061;SDS011;65989;51.686;5.138;2024-02-14T13:44:32;10.35;;;6.90;;
77061;SDS011;65989;51.686;5.138;2024-02-14T13:46:58;10.00;;;6.57;;
77061;SDS011;65989;51.686;5.138;2024-02-14T13:49:24;12.45;;;7.15;;
77061;SDS011;65989;51.686;5.138;2024-02-14T13:51:51;9.20;;;6.25;;
77061;SDS011;65989;51.686;5.138;2024-02-14T13:54:17;10.25;;;6.93;;
77061;SDS011;65989;51.686;5.138;2024-02-14T13:56:47;12.30;;;7.53;;
77061;SDS011;65989;51.686;5.138;2024-02-14T13:59:13;13.13;;;7.57;;
77061;SDS011;65989;51.686;5.138;2024-02-14T14:01:39;11.52;;;7.28;;
77061;SDS011;65989;51.686;5.138;2024-02-14T14:04:05;12.00;;;7.10;;
77061;SDS011;65989;51.686;5.138;2024-02-14T14:06:30;10.70;;;7.97;;
77061;SDS011;65989;51.686;5.138;2024-02-14T14:08:56;12.50;;;8.45;;
77061;SDS011;65989;51.686;5.138;2024-02-14T14:11:22;13.33;;;8.33;;
77061;SDS011;65989;51.686;5.138;2024-02-14T14:13:48;11.48;;;8.40;;
77061;SDS011;65989;51.686;5.138;2024-02-14T14:16:14;12.25;;;8.10;;
77061;SDS011;65989;51.686;5.138;2024-02-14T14:18:39;12.67;;;8.10;;
77061;SDS011;65989;51.686;5.138;2024-02-14T14:21:05;13.40;;;8.18;;
77061;SDS011;65989;51.686;5.138;2024-02-14T14:23:31;12.20;;;8.07;;
77061;SDS011;65989;51.686;5.138;2024-02-14T14:26:01;11.27;;;7.55;;
77061;SDS011;65989;51.686;5.138;2024-02-14T14:28:26;10.82;;;6.95;;